sensor_id;sensor_type;location;lat;lon;timestamp;P1;durP1;ratioP1;P2;durP2;ratioP2
65998;SDS011;52766;56.008;37.440;2023-05-29T00:01:43;4.55;;;1.73;;
65998;SDS011;52766;56.008;37.440;2023-05-29T00:04:11;6.88;;;1.90;;
65998;SDS011;52766;56.008;37.440;2023-05-29T00:06:37;3.92;;;1.90;;
65998;SDS011;52766;56.008;37.440;2023-05-29T00:09:03;3.35;;;1.70;;
65998;SDS011;52766;56.008;37.440;2023-05-29T00:11:29;3.72;;;1.80;;
65998;SDS011;52766;56.008;37.440;2023-05-29T00:13:56;3.90;;;1.48;;
65998;SDS011;52766;56.008;37.440;2023-05-29T00:16:22;4.18;;;1.30;;
65998;SDS011;52766;56.008;37.440;2023-05-29T00:18:52;3.17;;;1.50;;
65998;SDS011;52766;56.008;37.440;2023-05-29T00:21:19;5.65;;;2.08;;
65998;SDS011;52766;56.008;37.440;2023-05-29T00:23:45;8.50;;;1.75;;
65998;SDS011;52766;56.008;37.440;2023-05-29T00:26:11;4.25;;;1.98;;
65998;SDS011;52766;56.008;37.440;2023-05-29T00:28:38;3.90;;;1.88;;
65998;SDS011;52766;56.008;37.440;2023-05-29T00:31:04;3.95;;;1.40;;
65998;SDS011;52766;56.008;37.440;2023-05-29T00:33:32;5.20;;;1.58;;
65998;SDS011;52766;56.008;37.440;2023-05-29T00:35:58;4.50;;;1.50;;
65998;SDS011;52766;56.008;37.440;2023-05-29T00:38:24;8.15;;;1.88;;
65998;SDS011;52766;56.008;37.440;2023-05-29T00:40:50;4.70;;;1.50;;
65998;SDS011;52766;56.008;37.440;2023-05-29T00:43:16;3.28;;;1.40;;
65998;SDS011;52766;56.008;37.440;2023-05-29T00:45:41;3.80;;;1.67;;
65998;SDS011;52766;56.008;37.440;2023-05-29T00:48:07;3.47;;;1.52;;
65998;SDS011;52766;56.008;37.440;2023-05-29T00:50:34;2.97;;;1.65;;
65998;SDS011;52766;56.008;37.440;2023-05-29T00:53:00;2.75;;;1.50;;
65998;SDS011;52766;56.008;37.440;2023-05-29T00:55:28;8.07;;;1.80;;
65998;SDS011;52766;56.008;37.440;2023-05-29T00:57:54;2.40;;;1.20;;
65998;SDS011;52766;56.008;37.440;2023-05-29T01:00:21;4.10;;;1.80;;
65998;SDS011;52766;56.008;37.440;2023-05-29T01:02:47;3.88;;;1.73;;
65998;SDS011;52766;56.008;37.440;2023-05-29T01:05:13;4.25;;;2.03;;
65998;SDS011;52766;56.008;37.440;2023-05-29T01:07:40;3.55;;;1.67;;
65998;SDS011;52766;56.008;37.440;2023-05-29T01:10:07;4.82;;;1.60;;
65998;SDS011;52766;56.008;37.440;2023-05-29T01:15:29;5.55;;;1.67;;
65998;SDS011;52766;56.008;37.440;2023-05-29T01:18:23;6.15;;;2.50;;
65998;SDS011;52766;56.008;37.440;2023-05-29T01:29:12;6.43;;;2.30;;
65998;SDS011;52766;56.008;37.440;2023-05-29T01:31:40;4.72;;;2.03;;
65998;SDS011;52766;56.008;37.440;2023-05-29T01:34:08;2.70;;;2.15;;
65998;SDS011;52766;56.008;37.440;2023-05-29T01:36:33;5.28;;;2.30;;
65998;SDS011;52766;56.008;37.440;2023-05-29T01:39:01;7.13;;;2.22;;
65998;SDS011;52766;56.008;37.440;2023-05-29T01:41:31;4.18;;;2.08;;
65998;SDS011;52766;56.008;37.440;2023-05-29T01:43:57;6.05;;;1.98;;
65998;SDS011;52766;56.008;37.440;2023-05-29T01:46:24;3.60;;;1.75;;
65998;SDS011;52766;56.008;37.440;2023-05-29T01:48:51;3.97;;;1.95;;
65998;SDS011;52766;56.008;37.440;2023-05-29T01:51:17;5.40;;;1.67;;
65998;SDS011;52766;56.008;37.440;2023-05-29T01:53:45;4.25;;;2.17;;
65998;SDS011;52766;56.008;37.440;2023-05-29T01:56:11;4.80;;;1.90;;
65998;SDS011;52766;56.008;37.440;2023-05-29T01:58:38;6.53;;;2.00;;
65998;SDS011;52766;56.008;37.440;2023-05-29T02:01:06;6.13;;;1.90;;
65998;SDS011;52766;56.008;37.440;2023-05-29T02:03:34;3.80;;;1.40;;
65998;SDS011;52766;56.008;37.440;2023-05-29T02:06:01;5.55;;;1.90;;
65998;SDS011;52766;56.008;37.440;2023-05-29T02:08:27;3.00;;;1.45;;
65998;SDS011;52766;56.008;37.440;2023-05-29T02:10:54;3.70;;;1.70;;
65998;SDS011;52766;56.008;37.440;2023-05-29T02:13:20;3.95;;;1.85;;
65998;SDS011;52766;56.008;37.440;2023-05-29T02:15:47;3.97;;;1.77;;
65998;SDS011;52766;56.008;37.440;2023-05-29T02:18:14;6.03;;;1.80;;
65998;SDS011;52766;56.008;37.440;2023-05-29T02:20:44;4.35;;;1.48;;
65998;SDS011;52766;56.008;37.440;2023-05-29T02:23:16;3.58;;;1.70;;
65998;SDS011;52766;56.008;37.440;2023-05-29T02:25:42;4.72;;;1.73;;
65998;SDS011;52766;56.008;37.440;2023-05-29T02:28:09;4.35;;;1.80;;
65998;SDS011;52766;56.008;37.440;2023-05-29T02:30:35;4.20;;;1.70;;
65998;SDS011;52766;56.008;37.440;2023-05-29T02:33:01;5.45;;;2.03;;
65998;SDS011;52766;56.008;37.440;2023-05-29T02:35:27;4.60;;;1.55;;
65998;SDS011;52766;56.008;37.440;2023-05-29T02:37:53;3.45;;;1.60;;
65998;SDS011;52766;56.008;37.440;2023-05-29T02:40:19;4.50;;;1.60;;
65998;SDS011;52766;56.008;37.440;2023-05-29T02:42:46;4.85;;;1.80;;
65998;SDS011;52766;56.008;37.440;2023-05-29T02:45:12;5.55;;;1.77;;
65998;SDS011;52766;56.008;37.440;2023-05-29T02:47:38;2.80;;;1.73;;
65998;SDS011;52766;56.008;37.440;2023-05-29T02:50:04;4.65;;;1.60;;
65998;SDS011;52766;56.008;37.440;2023-05-29T02:52:31;6.03;;;1.60;;
65998;SDS011;52766;56.008;37.440;2023-05-29T02:54:58;3.50;;;1.52;;
65998;SDS011;52766;56.008;37.440;2023-05-29T02:57:30;3.33;;;2.00;;
65998;SDS011;52766;56.008;37.440;2023-05-29T02:59:56;2.75;;;1.40;;
65998;SDS011;52766;56.008;37.440;2023-05-29T03:02:22;5.57;;;1.88;;
65998;SDS011;52766;56.008;37.440;2023-05-29T03:04:48;3.40;;;1.75;;
65998;SDS011;52766;56.008;37.440;2023-05-29T03:07:19;3.60;;;1.40;;
65998;SDS011;52766;56.008;37.440;2023-05-29T03:09:45;3.03;;;1.55;;
65998;SDS011;52766;56.008;37.440;2023-05-29T03:12:11;4.90;;;1.58;;
65998;SDS011;52766;56.008;37.440;2023-05-29T03:14:38;4.90;;;1.50;;
65998;SDS011;52766;56.008;37.440;2023-05-29T03:17:09;6.68;;;2.00;;
65998;SDS011;52766;56.008;37.440;2023-05-29T03:19:36;5.07;;;1.67;;
65998;SDS011;52766;56.008;37.440;2023-05-29T03:22:03;7.25;;;1.77;;
65998;SDS011;52766;56.008;37.440;2023-05-29T03:24:31;3.75;;;1.35;;
65998;SDS011;52766;56.008;37.440;2023-05-29T03:27:01;4.50;;;1.70;;
65998;SDS011;52766;56.008;37.440;2023-05-29T03:31:57;3.60;;;1.60;;
65998;SDS011;52766;56.008;37.440;2023-05-29T03:34:28;3.10;;;1.50;;
65998;SDS011;52766;56.008;37.440;2023-05-29T03:36:57;3.10;;;1.60;;
65998;SDS011;52766;56.008;37.440;2023-05-29T03:39:27;3.60;;;1.50;;
65998;SDS011;52766;56.008;37.440;2023-05-29T03:41:53;4.65;;;1.83;;
65998;SDS011;52766;56.008;37.440;2023-05-29T03:44:19;3.88;;;1.75;;
65998;SDS011;52766;56.008;37.440;2023-05-29T03:46:46;2.80;;;1.25;;
65998;SDS011;52766;56.008;37.440;2023-05-29T03:49:13;3.05;;;1.60;;
65998;SDS011;52766;56.008;37.440;2023-05-29T03:51:41;7.38;;;2.22;;
65998;SDS011;52766;56.008;37.440;2023-05-29T03:54:08;3.45;;;1.50;;
65998;SDS011;52766;56.008;37.440;2023-05-29T03:56:34;3.47;;;1.50;;
65998;SDS011;52766;56.008;37.440;2023-05-29T03:59:02;2.08;;;1.23;;
65998;SDS011;52766;56.008;37.440;2023-05-29T04:01:30;4.55;;;1.45;;
65998;SDS011;52766;56.008;37.440;2023-05-29T04:03:57;3.08;;;1.20;;
65998;SDS011;52766;56.008;37.440;2023-05-29T04:06:23;4.07;;;1.40;;
65998;SDS011;52766;56.008;37.440;2023-05-29T04:08:49;4.32;;;1.50;;
65998;SDS011;52766;56.008;37.440;2023-05-29T04:11:15;2.85;;;1.40;;
65998;SDS011;52766;56.008;37.440;2023-05-29T04:13:41;3.30;;;1.20;;
65998;SDS011;52766;56.008;37.440;2023-05-29T04:16:09;3.35;;;1.33;;
65998;SDS011;52766;56.008;37.440;2023-05-29T04:18:37;7.05;;;2.17;;
65998;SDS011;52766;56.008;37.440;2023-05-29T04:21:03;4.00;;;1.50;;
65998;SDS011;52766;56.008;37.440;2023-05-29T04:23:29;2.72;;;1.33;;
65998;SDS011;52766;56.008;37.440;2023-05-29T04:25:56;3.53;;;1.40;;
65998;SDS011;52766;56.008;37.440;2023-05-29T04:28:25;2.63;;;1.35;;
65998;SDS011;52766;56.008;37.440;2023-05-29T04:30:53;4.55;;;1.40;;
65998;SDS011;52766;56.008;37.440;2023-05-29T04:33:22;3.08;;;1.10;;
65998;SDS011;52766;56.008;37.440;2023-05-29T04:35:52;2.17;;;1.30;;
65998;SDS011;52766;56.008;37.440;2023-05-29T04:38:18;3.03;;;1.40;;
65998;SDS011;52766;56.008;37.440;2023-05-29T04:40:53;6.20;;;1.33;;
65998;SDS011;52766;56.008;37.440;2023-05-29T04:43:27;4.07;;;1.38;;
65998;SDS011;52766;56.008;37.440;2023-05-29T04:46:01;4.07;;;1.50;;
65998;SDS011;52766;56.008;37.440;2023-05-29T04:48:28;3.47;;;1.60;;
65998;SDS011;52766;56.008;37.440;2023-05-29T04:50:54;5.30;;;2.08;;
65998;SDS011;52766;56.008;37.440;2023-05-29T04:53:21;5.55;;;1.70;;
65998;SDS011;52766;56.008;37.440;2023-05-29T04:55:52;3.28;;;1.70;;
65998;SDS011;52766;56.008;37.440;2023-05-29T04:58:26;5.80;;;2.00;;
65998;SDS011;52766;56.008;37.440;2023-05-29T05:00:53;3.70;;;1.75;;
65998;SDS011;52766;56.008;37.440;2023-05-29T05:03:30;3.50;;;1.70;;
65998;SDS011;52766;56.008;37.440;2023-05-29T05:06:00;3.70;;;1.58;;
65998;SDS011;52766;56.008;37.440;2023-05-29T05:08:35;3.55;;;1.33;;
65998;SDS011;52766;56.008;37.440;2023-05-29T05:11:02;2.17;;;1.33;;
65998;SDS011;52766;56.008;37.440;2023-05-29T05:13:31;4.13;;;1.38;;
65998;SDS011;52766;56.008;37.440;2023-05-29T05:15:58;3.55;;;1.40;;
65998;SDS011;52766;56.008;37.440;2023-05-29T05:18:30;6.20;;;1.88;;
65998;SDS011;52766;56.008;37.440;2023-05-29T05:21:07;2.40;;;1.20;;
65998;SDS011;52766;56.008;37.440;2023-05-29T05:23:42;3.75;;;1.40;;
65998;SDS011;52766;56.008;37.440;2023-05-29T05:29:58;6.28;;;1.55;;
65998;SDS011;52766;56.008;37.440;2023-05-29T05:33:09;2.20;;;1.20;;
65998;SDS011;52766;56.008;37.440;2023-05-29T05:39:12;3.30;;;1.40;;
65998;SDS011;52766;56.008;37.440;2023-05-29T05:49:54;4.03;;;1.90;;
65998;SDS011;52766;56.008;37.440;2023-05-29T05:52:33;5.45;;;2.00;;
65998;SDS011;52766;56.008;37.440;2023-05-29T05:55:16;2.75;;;1.38;;
65998;SDS011;52766;56.008;37.440;2023-05-29T05:57:46;4.45;;;1.77;;
65998;SDS011;52766;56.008;37.440;2023-05-29T06:00:19;2.15;;;1.00;;
65998;SDS011;52766;56.008;37.440;2023-05-29T06:02:49;3.65;;;1.45;;
65998;SDS011;52766;56.008;37.440;2023-05-29T06:05:38;3.33;;;1.50;;
65998;SDS011;52766;56.008;37.440;2023-05-29T06:08:30;3.33;;;1.00;;
65998;SDS011;52766;56.008;37.440;2023-05-29T06:10:57;1.90;;;1.10;;
65998;SDS011;52766;56.008;37.440;2023-05-29T06:13:25;1.35;;;0.90;;
65998;SDS011;52766;56.008;37.440;2023-05-29T06:15:57;1.95;;;1.10;;
65998;SDS011;52766;56.008;37.440;2023-05-29T06:18:23;1.45;;;0.82;;
65998;SDS011;52766;56.008;37.440;2023-05-29T06:20:52;2.13;;;0.82;;
65998;SDS011;52766;56.008;37.440;2023-05-29T06:23:18;2.10;;;1.10;;
65998;SDS011;52766;56.008;37.440;2023-05-29T06:25:51;2.85;;;1.00;;
65998;SDS011;52766;56.008;37.440;2023-05-29T06:28:24;3.35;;;1.77;;
65998;SDS011;52766;56.008;37.440;2023-05-29T06:31:06;2.38;;;1.10;;
65998;SDS011;52766;56.008;37.440;2023-05-29T06:33:39;1.08;;;0.80;;
65998;SDS011;52766;56.008;37.440;2023-05-29T06:36:09;1.27;;;1.00;;
65998;SDS011;52766;56.008;37.440;2023-05-29T06:38:39;2.33;;;1.23;;
65998;SDS011;52766;56.008;37.440;2023-05-29T06:43:54;2.30;;;1.05;;
65998;SDS011;52766;56.008;37.440;2023-05-29T06:46:26;1.33;;;0.70;;
65998;SDS011;52766;56.008;37.440;2023-05-29T06:48:52;2.25;;;1.02;;
65998;SDS011;52766;56.008;37.440;2023-05-29T06:51:23;2.63;;;1.13;;
65998;SDS011;52766;56.008;37.440;2023-05-29T06:53:55;2.75;;;0.93;;
65998;SDS011;52766;56.008;37.440;2023-05-29T06:56:24;1.25;;;0.60;;
65998;SDS011;52766;56.008;37.440;2023-05-29T06:58:55;2.35;;;1.00;;
65998;SDS011;52766;56.008;37.440;2023-05-29T07:01:22;1.48;;;0.80;;
65998;SDS011;52766;56.008;37.440;2023-05-29T07:03:56;0.77;;;0.77;;
65998;SDS011;52766;56.008;37.440;2023-05-29T07:06:23;1.15;;;0.60;;
65998;SDS011;52766;56.008;37.440;2023-05-29T07:08:53;2.08;;;0.90;;
65998;SDS011;52766;56.008;37.440;2023-05-29T07:11:20;3.55;;;1.20;;
65998;SDS011;52766;56.008;37.440;2023-05-29T07:13:58;3.10;;;1.05;;
65998;SDS011;52766;56.008;37.440;2023-05-29T07:16:29;6.53;;;0.90;;
65998;SDS011;52766;56.008;37.440;2023-05-29T07:19:04;1.42;;;0.90;;
65998;SDS011;52766;56.008;37.440;2023-05-29T07:21:35;2.45;;;0.95;;
65998;SDS011;52766;56.008;37.440;2023-05-29T07:24:05;2.05;;;1.05;;
65998;SDS011;52766;56.008;37.440;2023-05-29T07:26:35;0.82;;;0.50;;
65998;SDS011;52766;56.008;37.440;2023-05-29T07:29:02;1.63;;;0.70;;
65998;SDS011;52766;56.008;37.440;2023-05-29T07:31:28;2.92;;;0.85;;
65998;SDS011;52766;56.008;37.440;2023-05-29T07:33:57;2.13;;;1.15;;
65998;SDS011;52766;56.008;37.440;2023-05-29T07:36:30;2.72;;;0.93;;
65998;SDS011;52766;56.008;37.440;2023-05-29T07:39:00;3.67;;;1.00;;
65998;SDS011;52766;56.008;37.440;2023-05-29T07:41:33;2.38;;;1.00;;
65998;SDS011;52766;56.008;37.440;2023-05-29T07:44:02;2.50;;;1.05;;
65998;SDS011;52766;56.008;37.440;2023-05-29T07:46:30;1.33;;;0.73;;
65998;SDS011;52766;56.008;37.440;2023-05-29T07:49:21;1.08;;;0.75;;
65998;SDS011;52766;56.008;37.440;2023-05-29T07:51:49;2.50;;;1.17;;
65998;SDS011;52766;56.008;37.440;2023-05-29T07:54:19;0.80;;;0.80;;
65998;SDS011;52766;56.008;37.440;2023-05-29T07:56:49;1.42;;;0.93;;
65998;SDS011;52766;56.008;37.440;2023-05-29T07:59:18;1.38;;;0.77;;
65998;SDS011;52766;56.008;37.440;2023-05-29T08:02:11;2.90;;;1.17;;
65998;SDS011;52766;56.008;37.440;2023-05-29T08:04:56;1.98;;;1.00;;
65998;SDS011;52766;56.008;37.440;2023-05-29T08:07:23;1.58;;;0.80;;
65998;SDS011;52766;56.008;37.440;2023-05-29T08:09:52;2.03;;;0.90;;
65998;SDS011;52766;56.008;37.440;2023-05-29T08:12:19;1.05;;;0.80;;
65998;SDS011;52766;56.008;37.440;2023-05-29T08:14:49;2.65;;;1.00;;
65998;SDS011;52766;56.008;37.440;2023-05-29T08:20:33;2.38;;;1.05;;
65998;SDS011;52766;56.008;37.440;2023-05-29T08:23:11;1.58;;;1.45;;
65998;SDS011;52766;56.008;37.440;2023-05-29T08:28:09;1.88;;;0.70;;
65998;SDS011;52766;56.008;37.440;2023-05-29T08:30:38;3.08;;;1.17;;
65998;SDS011;52766;56.008;37.440;2023-05-29T08:33:05;3.25;;;1.00;;
65998;SDS011;52766;56.008;37.440;2023-05-29T08:35:32;1.02;;;0.93;;
65998;SDS011;52766;56.008;37.440;2023-05-29T08:37:59;2.00;;;1.23;;
65998;SDS011;52766;56.008;37.440;2023-05-29T08:40:32;4.03;;;1.55;;
65998;SDS011;52766;56.008;37.440;2023-05-29T08:43:06;3.28;;;1.20;;
65998;SDS011;52766;56.008;37.440;2023-05-29T08:45:33;3.83;;;1.48;;
65998;SDS011;52766;56.008;37.440;2023-05-29T08:48:02;4.35;;;1.40;;
65998;SDS011;52766;56.008;37.440;2023-05-29T08:50:39;2.55;;;1.30;;
65998;SDS011;52766;56.008;37.440;2023-05-29T08:53:10;3.85;;;1.40;;
65998;SDS011;52766;56.008;37.440;2023-05-29T08:55:44;3.63;;;1.48;;
65998;SDS011;52766;56.008;37.440;2023-05-29T08:58:13;4.40;;;1.30;;
65998;SDS011;52766;56.008;37.440;2023-05-29T09:00:44;3.67;;;1.10;;
65998;SDS011;52766;56.008;37.440;2023-05-29T09:03:14;2.50;;;1.58;;
65998;SDS011;52766;56.008;37.440;2023-05-29T09:05:51;2.17;;;1.20;;
65998;SDS011;52766;56.008;37.440;2023-05-29T09:08:27;2.17;;;1.40;;
65998;SDS011;52766;56.008;37.440;2023-05-29T09:10:56;4.00;;;1.70;;
65998;SDS011;52766;56.008;37.440;2023-05-29T09:13:23;2.58;;;1.40;;
65998;SDS011;52766;56.008;37.440;2023-05-29T09:15:58;1.13;;;0.80;;
65998;SDS011;52766;56.008;37.440;2023-05-29T09:18:32;1.65;;;1.08;;
65998;SDS011;52766;56.008;37.440;2023-05-29T09:21:13;2.05;;;1.40;;
65998;SDS011;52766;56.008;37.440;2023-05-29T09:24:08;0.63;;;0.57;;
65998;SDS011;52766;56.008;37.440;2023-05-29T09:26:35;0.98;;;0.60;;
65998;SDS011;52766;56.008;37.440;2023-05-29T09:29:04;1.90;;;1.20;;
65998;SDS011;52766;56.008;37.440;2023-05-29T09:31:38;2.90;;;1.20;;
65998;SDS011;52766;56.008;37.440;2023-05-29T09:34:24;4.93;;;1.30;;
65998;SDS011;52766;56.008;37.440;2023-05-29T09:37:00;4.22;;;1.50;;
65998;SDS011;52766;56.008;37.440;2023-05-29T09:43:21;2.35;;;1.13;;
65998;SDS011;52766;56.008;37.440;2023-05-29T09:45:50;2.08;;;1.00;;
65998;SDS011;52766;56.008;37.440;2023-05-29T09:48:35;2.53;;;1.08;;
65998;SDS011;52766;56.008;37.440;2023-05-29T09:54:44;1.92;;;1.10;;
65998;SDS011;52766;56.008;37.440;2023-05-29T09:57:17;2.10;;;1.30;;
65998;SDS011;52766;56.008;37.440;2023-05-29T09:59:52;2.22;;;1.10;;
65998;SDS011;52766;56.008;37.440;2023-05-29T10:02:19;2.85;;;1.40;;
65998;SDS011;52766;56.008;37.440;2023-05-29T10:04:54;3.13;;;1.20;;
65998;SDS011;52766;56.008;37.440;2023-05-29T10:09:59;5.18;;;1.42;;
65998;SDS011;52766;56.008;37.440;2023-05-29T10:12:38;1.55;;;0.90;;
65998;SDS011;52766;56.008;37.440;2023-05-29T10:15:12;2.85;;;1.83;;
65998;SDS011;52766;56.008;37.440;2023-05-29T10:17:51;2.78;;;1.10;;
65998;SDS011;52766;56.008;37.440;2023-05-29T10:23:14;1.65;;;0.93;;
65998;SDS011;52766;56.008;37.440;2023-05-29T10:25:43;4.45;;;0.98;;
65998;SDS011;52766;56.008;37.440;2023-05-29T10:28:15;2.63;;;1.20;;
65998;SDS011;52766;56.008;37.440;2023-05-29T10:31:01;1.70;;;1.10;;
65998;SDS011;52766;56.008;37.440;2023-05-29T10:33:41;1.85;;;1.17;;
65998;SDS011;52766;56.008;37.440;2023-05-29T10:36:37;4.88;;;1.95;;
65998;SDS011;52766;56.008;37.440;2023-05-29T10:39:14;2.33;;;1.20;;
65998;SDS011;52766;56.008;37.440;2023-05-29T10:41:43;2.75;;;1.05;;
65998;SDS011;52766;56.008;37.440;2023-05-29T10:53:45;1.65;;;1.00;;
65998;SDS011;52766;56.008;37.440;2023-05-29T11:00:10;2.25;;;1.02;;
65998;SDS011;52766;56.008;37.440;2023-05-29T11:03:34;2.10;;;1.30;;
65998;SDS011;52766;56.008;37.440;2023-05-29T11:06:34;2.20;;;1.10;;
65998;SDS011;52766;56.008;37.440;2023-05-29T11:10:56;4.05;;;1.40;;
65998;SDS011;52766;56.008;37.440;2023-05-29T11:14:28;5.63;;;1.40;;
65998;SDS011;52766;56.008;37.440;2023-05-29T11:20:41;2.28;;;1.20;;
65998;SDS011;52766;56.008;37.440;2023-05-29T11:23:31;1.85;;;1.08;;
65998;SDS011;52766;56.008;37.440;2023-05-29T11:26:37;1.90;;;1.20;;
65998;SDS011;52766;56.008;37.440;2023-05-29T11:29:05;5.70;;;1.20;;
65998;SDS011;52766;56.008;37.440;2023-05-29T11:31:40;2.08;;;1.23;;
65998;SDS011;52766;56.008;37.440;2023-05-29T11:34:44;2.53;;;1.35;;
65998;SDS011;52766;56.008;37.440;2023-05-29T11:37:16;3.78;;;1.20;;
65998;SDS011;52766;56.008;37.440;2023-05-29T11:40:10;3.40;;;1.23;;
65998;SDS011;52766;56.008;37.440;2023-05-29T11:42:50;2.92;;;1.08;;
65998;SDS011;52766;56.008;37.440;2023-05-29T11:45:25;4.53;;;1.70;;
65998;SDS011;52766;56.008;37.440;2023-05-29T11:47:59;3.75;;;1.00;;
65998;SDS011;52766;56.008;37.440;2023-05-29T11:50:35;2.90;;;1.52;;
65998;SDS011;52766;56.008;37.440;2023-05-29T11:53:05;2.88;;;1.13;;
65998;SDS011;52766;56.008;37.440;2023-05-29T11:56:09;2.00;;;0.98;;
65998;SDS011;52766;56.008;37.440;2023-05-29T11:58:46;4.95;;;1.42;;
65998;SDS011;52766;56.008;37.440;2023-05-29T12:01:16;5.07;;;2.05;;
65998;SDS011;52766;56.008;37.440;2023-05-29T12:04:15;3.22;;;1.45;;
65998;SDS011;52766;56.008;37.440;2023-05-29T12:06:44;2.90;;;1.50;;
65998;SDS011;52766;56.008;37.440;2023-05-29T12:09:28;4.05;;;1.30;;
65998;SDS011;52766;56.008;37.440;2023-05-29T12:12:12;4.25;;;1.38;;
65998;SDS011;52766;56.008;37.440;2023-05-29T12:14:41;5.03;;;1.58;;
65998;SDS011;52766;56.008;37.440;2023-05-29T12:17:09;2.97;;;1.40;;
65998;SDS011;52766;56.008;37.440;2023-05-29T12:19:43;2.75;;;1.52;;
65998;SDS011;52766;56.008;37.440;2023-05-29T12:22:17;4.82;;;1.30;;
65998;SDS011;52766;56.008;37.440;2023-05-29T12:25:30;1.88;;;1.20;;
65998;SDS011;52766;56.008;37.440;2023-05-29T12:29:17;2.80;;;1.05;;
65998;SDS011;52766;56.008;37.440;2023-05-29T12:31:33;2.22;;;1.20;;
65998;SDS011;52766;56.008;37.440;2023-05-29T12:37:23;1.90;;;1.33;;
65998;SDS011;52766;56.008;37.440;2023-05-29T12:40:39;3.42;;;1.52;;
65998;SDS011;52766;56.008;37.440;2023-05-29T12:43:40;3.45;;;1.25;;
65998;SDS011;52766;56.008;37.440;2023-05-29T12:46:06;4.38;;;1.48;;
65998;SDS011;52766;56.008;37.440;2023-05-29T12:48:57;3.45;;;1.13;;
65998;SDS011;52766;56.008;37.440;2023-05-29T12:51:26;3.25;;;1.38;;
65998;SDS011;52766;56.008;37.440;2023-05-29T12:53:59;4.57;;;1.45;;
65998;SDS011;52766;56.008;37.440;2023-05-29T12:56:31;4.32;;;1.50;;
65998;SDS011;52766;56.008;37.440;2023-05-29T12:58:58;1.77;;;1.23;;
65998;SDS011;52766;56.008;37.440;2023-05-29T13:01:29;3.67;;;1.20;;
65998;SDS011;52766;56.008;37.440;2023-05-29T13:04:04;4.70;;;1.30;;
65998;SDS011;52766;56.008;37.440;2023-05-29T13:06:57;2.83;;;1.15;;
65998;SDS011;52766;56.008;37.440;2023-05-29T13:09:34;2.90;;;1.30;;
65998;SDS011;52766;56.008;37.440;2023-05-29T13:12:10;1.63;;;1.02;;
65998;SDS011;52766;56.008;37.440;2023-05-29T13:14:40;2.50;;;1.40;;
65998;SDS011;52766;56.008;37.440;2023-05-29T13:17:27;4.38;;;1.42;;
65998;SDS011;52766;56.008;37.440;2023-05-29T13:20:02;4.72;;;1.45;;
65998;SDS011;52766;56.008;37.440;2023-05-29T13:22:34;4.05;;;1.50;;
65998;SDS011;52766;56.008;37.440;2023-05-29T13:25:05;8.75;;;2.33;;
65998;SDS011;52766;56.008;37.440;2023-05-29T13:30:42;2.22;;;1.75;;
65998;SDS011;52766;56.008;37.440;2023-05-29T13:33:20;8.77;;;4.07;;
65998;SDS011;52766;56.008;37.440;2023-05-29T13:36:02;5.82;;;2.20;;
65998;SDS011;52766;56.008;37.440;2023-05-29T13:38:44;4.18;;;1.23;;
65998;SDS011;52766;56.008;37.440;2023-05-29T13:41:13;3.17;;;1.33;;
65998;SDS011;52766;56.008;37.440;2023-05-29T13:43:50;7.18;;;1.80;;
65998;SDS011;52766;56.008;37.440;2023-05-29T13:46:19;3.63;;;1.80;;
65998;SDS011;52766;56.008;37.440;2023-05-29T13:48:58;4.70;;;1.83;;
65998;SDS011;52766;56.008;37.440;2023-05-29T13:51:27;4.07;;;1.80;;
65998;SDS011;52766;56.008;37.440;2023-05-29T13:56:22;7.82;;;2.08;;
65998;SDS011;52766;56.008;37.440;2023-05-29T13:58:55;2.70;;;1.67;;
65998;SDS011;52766;56.008;37.440;2023-05-29T14:01:30;7.22;;;2.90;;
65998;SDS011;52766;56.008;37.440;2023-05-29T14:03:56;4.82;;;1.85;;
65998;SDS011;52766;56.008;37.440;2023-05-29T14:06:22;3.40;;;1.45;;
65998;SDS011;52766;56.008;37.440;2023-05-29T14:08:50;4.40;;;1.63;;
65998;SDS011;52766;56.008;37.440;2023-05-29T14:11:17;4.88;;;1.75;;
65998;SDS011;52766;56.008;37.440;2023-05-29T14:13:42;2.38;;;1.38;;
65998;SDS011;52766;56.008;37.440;2023-05-29T14:16:08;4.05;;;1.73;;
65998;SDS011;52766;56.008;37.440;2023-05-29T14:18:35;2.63;;;1.52;;
65998;SDS011;52766;56.008;37.440;2023-05-29T14:21:08;5.10;;;2.15;;
65998;SDS011;52766;56.008;37.440;2023-05-29T14:23:34;4.07;;;1.80;;
65998;SDS011;52766;56.008;37.440;2023-05-29T14:26:01;6.10;;;1.98;;
65998;SDS011;52766;56.008;37.440;2023-05-29T14:28:29;4.25;;;1.88;;
65998;SDS011;52766;56.008;37.440;2023-05-29T14:30:58;5.88;;;1.63;;
65998;SDS011;52766;56.008;37.440;2023-05-29T14:33:26;2.67;;;1.42;;
65998;SDS011;52766;56.008;37.440;2023-05-29T14:35:59;3.85;;;1.70;;
65998;SDS011;52766;56.008;37.440;2023-05-29T14:38:29;4.13;;;1.45;;
65998;SDS011;52766;56.008;37.440;2023-05-29T14:40:56;4.88;;;1.67;;
65998;SDS011;52766;56.008;37.440;2023-05-29T14:43:24;2.30;;;1.40;;
65998;SDS011;52766;56.008;37.440;2023-05-29T14:45:54;4.25;;;1.70;;
65998;SDS011;52766;56.008;37.440;2023-05-29T14:48:21;3.17;;;2.00;;
65998;SDS011;52766;56.008;37.440;2023-05-29T14:50:49;4.03;;;1.85;;
65998;SDS011;52766;56.008;37.440;2023-05-29T14:53:18;5.63;;;2.38;;
65998;SDS011;52766;56.008;37.440;2023-05-29T14:55:46;4.22;;;1.70;;
65998;SDS011;52766;56.008;37.440;2023-05-29T14:58:14;3.65;;;1.58;;
65998;SDS011;52766;56.008;37.440;2023-05-29T15:00:42;4.70;;;1.60;;
65998;SDS011;52766;56.008;37.440;2023-05-29T15:03:09;3.60;;;1.40;;
65998;SDS011;52766;56.008;37.440;2023-05-29T15:05:37;4.28;;;1.70;;
65998;SDS011;52766;56.008;37.440;2023-05-29T15:08:10;2.90;;;1.33;;
65998;SDS011;52766;56.008;37.440;2023-05-29T15:11:04;2.85;;;1.50;;
65998;SDS011;52766;56.008;37.440;2023-05-29T15:13:31;4.25;;;1.60;;
65998;SDS011;52766;56.008;37.440;2023-05-29T15:18:32;3.33;;;1.50;;
65998;SDS011;52766;56.008;37.440;2023-05-29T15:21:03;2.97;;;1.70;;
65998;SDS011;52766;56.008;37.440;2023-05-29T15:23:32;2.50;;;1.38;;
65998;SDS011;52766;56.008;37.440;2023-05-29T15:25:59;2.05;;;1.50;;
65998;SDS011;52766;56.008;37.440;2023-05-29T15:28:30;4.93;;;1.58;;
65998;SDS011;52766;56.008;37.440;2023-05-29T15:31:00;3.63;;;2.00;;
65998;SDS011;52766;56.008;37.440;2023-05-29T15:33:27;5.50;;;1.67;;
65998;SDS011;52766;56.008;37.440;2023-05-29T15:36:20;3.90;;;1.60;;
65998;SDS011;52766;56.008;37.440;2023-05-29T15:38:47;7.20;;;2.10;;
65998;SDS011;52766;56.008;37.440;2023-05-29T15:41:17;4.43;;;2.00;;
65998;SDS011;52766;56.008;37.440;2023-05-29T15:43:47;4.18;;;2.05;;
65998;SDS011;52766;56.008;37.440;2023-05-29T15:46:16;5.68;;;1.67;;
65998;SDS011;52766;56.008;37.440;2023-05-29T15:48:49;3.85;;;1.40;;
65998;SDS011;52766;56.008;37.440;2023-05-29T15:51:18;5.55;;;1.50;;
65998;SDS011;52766;56.008;37.440;2023-05-29T15:53:45;3.03;;;1.40;;
65998;SDS011;52766;56.008;37.440;2023-05-29T15:56:15;2.80;;;1.42;;
65998;SDS011;52766;56.008;37.440;2023-05-29T15:58:43;6.53;;;1.80;;
65998;SDS011;52766;56.008;37.440;2023-05-29T16:01:13;3.83;;;1.90;;
65998;SDS011;52766;56.008;37.440;2023-05-29T16:03:41;6.53;;;1.70;;
65998;SDS011;52766;56.008;37.440;2023-05-29T16:06:12;6.40;;;1.60;;
65998;SDS011;52766;56.008;37.440;2023-05-29T16:08:42;3.65;;;1.90;;
65998;SDS011;52766;56.008;37.440;2023-05-29T16:11:14;3.88;;;1.80;;
65998;SDS011;52766;56.008;37.440;2023-05-29T16:13:41;5.15;;;1.73;;
65998;SDS011;52766;56.008;37.440;2023-05-29T16:16:07;6.75;;;2.60;;
65998;SDS011;52766;56.008;37.440;2023-05-29T16:18:35;3.95;;;1.80;;
65998;SDS011;52766;56.008;37.440;2023-05-29T16:21:05;4.22;;;2.55;;
65998;SDS011;52766;56.008;37.440;2023-05-29T16:26:27;3.35;;;1.90;;